createdAt,value
2017-11-17T00:00:44.849Z,16.08
2017-11-17T00:01:50.362Z,16.65
2017-11-17T00:02:55.955Z,17.42
2017-11-17T00:04:01.487Z,16.10
2017-11-17T00:05:06.988Z,17.02
2017-11-17T00:06:12.805Z,16.65
2017-11-17T00:07:18.260Z,16.60
2017-11-17T00:08:23.695Z,17.00
2017-11-17T00:09:29.378Z,16.45
2017-11-17T00:10:34.973Z,16.08
2017-11-17T00:11:40.696Z,16.62
2017-11-17T00:12:46.223Z,16.58
2017-11-17T00:13:51.743Z,16.45
2017-11-17T00:14:58.435Z,16.60
2017-11-17T00:16:03.972Z,16.77
2017-11-17T00:17:09.673Z,16.30
2017-11-17T00:18:15.258Z,16.67
2017-11-17T00:19:20.692Z,17.12
2017-11-17T00:20:26.307Z,16.05
2017-11-17T00:21:31.789Z,16.58
2017-11-17T00:22:37.368Z,17.80
2017-11-17T00:23:42.825Z,16.15
2017-11-17T00:24:48.437Z,16.52
2017-11-17T00:25:54.098Z,16.55
2017-11-17T00:27:00.412Z,16.20
2017-11-17T00:28:05.850Z,17.17
2017-11-17T00:29:11.302Z,15.50
2017-11-17T00:30:16.802Z,16.77
2017-11-17T00:31:22.412Z,16.87
2017-11-17T00:32:27.887Z,17.00
2017-11-17T00:33:33.629Z,16.65
2017-11-17T00:34:42.455Z,16.40
2017-11-17T00:35:47.929Z,16.45
2017-11-17T00:36:54.035Z,16.10
2017-11-17T00:37:59.534Z,16.12
2017-11-17T00:39:05.058Z,16.97
2017-11-17T00:40:10.509Z,16.50
2017-11-17T00:41:16.652Z,16.75
2017-11-17T00:42:22.183Z,16.70
2017-11-17T00:43:27.633Z,17.90
2017-11-17T00:44:33.266Z,16.62
2017-11-17T00:45:39.223Z,16.35
2017-11-17T00:46:44.690Z,16.60
2017-11-17T00:47:50.132Z,17.83
2017-11-17T00:48:55.600Z,17.98
2017-11-17T00:50:01.140Z,17.60
2017-11-17T00:51:06.545Z,17.40
2017-11-17T00:52:12.142Z,17.80
2017-11-17T00:53:17.592Z,17.40
2017-11-17T00:54:23.062Z,18.10
2017-11-17T00:55:28.612Z,16.90
2017-11-17T00:56:34.181Z,18.98
2017-11-17T00:57:40.217Z,17.25
2017-11-17T00:58:45.605Z,18.12
2017-11-17T00:59:51.035Z,17.90
2017-11-17T01:00:56.550Z,17.20
2017-11-17T01:02:02.000Z,18.20
2017-11-17T01:03:07.431Z,17.55
2017-11-17T01:04:12.857Z,18.10
2017-11-17T01:05:18.320Z,17.90
2017-11-17T01:06:23.787Z,17.50
2017-11-17T01:07:29.202Z,16.87
2017-11-17T01:08:34.753Z,18.25
2017-11-17T01:09:40.260Z,17.42
2017-11-17T01:10:45.676Z,17.00
2017-11-17T01:11:51.112Z,17.48
2017-11-17T01:12:56.612Z,17.00
2017-11-17T01:14:02.395Z,17.02
2017-11-17T01:15:09.761Z,17.62
2017-11-17T01:16:18.721Z,17.12
2017-11-17T01:17:25.288Z,16.85
2017-11-17T01:18:31.440Z,18.05
2017-11-17T01:19:36.884Z,18.37
2017-11-17T01:20:42.379Z,17.30
2017-11-17T01:21:47.838Z,18.23
2017-11-17T01:22:53.279Z,16.65
2017-11-17T01:23:58.812Z,16.87
2017-11-17T01:25:04.900Z,17.27
2017-11-17T01:26:10.301Z,16.02
2017-11-17T01:27:18.092Z,17.73
2017-11-17T01:28:24.554Z,17.87
2017-11-17T01:29:30.160Z,18.10
2017-11-17T01:30:35.824Z,16.48
2017-11-17T01:31:41.413Z,16.70
2017-11-17T01:32:46.851Z,17.00
2017-11-17T01:33:54.460Z,17.80
2017-11-17T01:35:00.485Z,18.10
2017-11-17T01:36:06.432Z,18.15
2017-11-17T01:37:15.737Z,18.23
2017-11-17T01:38:21.845Z,18.20
2017-11-17T01:39:27.288Z,20.10
2017-11-17T01:40:33.049Z,47.53
2017-11-17T01:41:38.506Z,20.45
2017-11-17T01:42:43.954Z,18.70
2017-11-17T01:43:49.828Z,20.10
2017-11-17T01:44:55.329Z,19.15
2017-11-17T01:46:00.989Z,19.98
2017-11-17T01:47:07.038Z,19.05
2017-11-17T01:48:12.486Z,18.33
2017-11-17T01:49:17.910Z,18.73
2017-11-17T01:50:23.415Z,19.23
2017-11-17T01:51:29.052Z,18.50
2017-11-17T01:52:34.463Z,19.08
2017-11-17T01:53:39.897Z,20.30
2017-11-17T01:54:45.318Z,18.95
2017-11-17T01:55:50.935Z,17.48
2017-11-17T01:56:56.756Z,19.42
2017-11-17T01:58:02.542Z,18.23
2017-11-17T01:59:07.998Z,20.17
2017-11-17T02:00:13.509Z,20.08
2017-11-17T02:01:18.951Z,19.08
2017-11-17T02:02:24.555Z,19.53
2017-11-17T02:03:29.995Z,19.65
2017-11-17T02:04:35.503Z,20.27
2017-11-17T02:05:41.005Z,21.37
2017-11-17T02:06:46.920Z,20.15
2017-11-17T02:07:52.503Z,20.85
2017-11-17T02:08:57.956Z,20.23
2017-11-17T02:10:03.547Z,20.40
2017-11-17T02:11:09.094Z,19.12
2017-11-17T02:12:14.545Z,19.95
2017-11-17T02:13:19.974Z,20.02
2017-11-17T02:14:25.752Z,20.80
2017-11-17T02:15:31.248Z,19.10
2017-11-17T02:16:36.697Z,18.27
2017-11-17T02:17:42.185Z,18.92
2017-11-17T02:18:47.611Z,20.05
2017-11-17T02:19:53.455Z,21.48
2017-11-17T02:20:58.985Z,20.40
2017-11-17T02:22:04.832Z,21.30
2017-11-17T02:23:10.539Z,20.05
2017-11-17T02:24:16.089Z,20.35
2017-11-17T02:25:21.768Z,19.80
2017-11-17T02:26:27.308Z,19.52
2017-11-17T02:27:33.073Z,20.17
2017-11-17T02:28:38.724Z,19.00
2017-11-17T02:29:44.297Z,20.35
2017-11-17T02:30:50.184Z,19.90
2017-11-17T02:31:55.640Z,20.88
2017-11-17T02:33:01.135Z,19.75
2017-11-17T02:34:06.983Z,21.67
2017-11-17T02:35:12.726Z,20.73
2017-11-17T02:36:19.113Z,20.80
2017-11-17T02:37:24.969Z,21.05
2017-11-17T02:38:31.137Z,22.95
2017-11-17T02:39:37.085Z,23.35
2017-11-17T02:40:43.038Z,22.83
2017-11-17T02:41:48.715Z,21.90
2017-11-17T02:42:54.421Z,22.20
2017-11-17T02:43:59.884Z,22.45
2017-11-17T02:45:05.486Z,22.90
2017-11-17T02:46:10.949Z,21.90
2017-11-17T02:47:16.718Z,22.75
2017-11-17T02:48:22.414Z,23.08
2017-11-17T02:49:28.062Z,22.42
2017-11-17T02:50:33.538Z,22.17
2017-11-17T02:51:38.981Z,22.25
2017-11-17T02:52:44.785Z,23.35
2017-11-17T02:53:50.612Z,23.00
2017-11-17T02:54:56.401Z,23.90
2017-11-17T02:56:02.381Z,23.25
2017-11-17T02:57:07.899Z,23.25
2017-11-17T02:58:13.398Z,23.83
2017-11-17T02:59:19.141Z,23.15
2017-11-17T03:00:25.001Z,22.40
2017-11-17T03:01:30.923Z,23.55
2017-11-17T03:02:36.365Z,23.20
2017-11-17T03:03:42.361Z,23.85
2017-11-17T03:04:48.468Z,23.40
2017-11-17T03:05:53.994Z,22.33
2017-11-17T03:06:59.790Z,23.08
2017-11-17T03:08:05.685Z,23.38
2017-11-17T03:09:11.127Z,23.17
2017-11-17T03:10:16.909Z,23.20
2017-11-17T03:11:22.489Z,23.08
2017-11-17T03:12:27.948Z,22.13
2017-11-17T03:13:33.395Z,22.65
2017-11-17T03:14:38.839Z,23.15
2017-11-17T03:15:44.686Z,22.73
2017-11-17T03:16:50.169Z,23.58
2017-11-17T03:17:55.594Z,22.60
2017-11-17T03:19:01.301Z,24.90
2017-11-17T03:20:06.910Z,24.40
2017-11-17T03:21:12.701Z,24.17
2017-11-17T03:22:18.751Z,25.17
2017-11-17T03:23:24.260Z,25.30
2017-11-17T03:24:29.873Z,24.30
2017-11-17T03:25:35.625Z,23.38
2017-11-17T03:26:41.076Z,23.80
2017-11-17T03:27:46.572Z,23.23
2017-11-17T03:28:52.066Z,23.55
2017-11-17T03:29:57.477Z,22.80
2017-11-17T03:31:03.402Z,24.08
2017-11-17T03:32:09.129Z,24.30
2017-11-17T03:33:14.672Z,22.65
2017-11-17T03:34:20.425Z,22.57
2017-11-17T03:35:26.132Z,23.87
2017-11-17T03:36:31.885Z,22.23
2017-11-17T03:37:37.577Z,22.95
2017-11-17T03:38:43.021Z,22.95
2017-11-17T03:39:48.675Z,23.48
2017-11-17T03:40:54.397Z,24.37
2017-11-17T03:42:00.238Z,24.73
2017-11-17T03:43:06.170Z,24.20
2017-11-17T03:44:11.847Z,23.92
2017-11-17T03:45:17.270Z,22.65
2017-11-17T03:46:23.336Z,24.02
2017-11-17T03:47:29.046Z,23.98
2017-11-17T03:48:34.920Z,25.07
2017-11-17T03:49:40.802Z,25.48
2017-11-17T03:50:46.586Z,23.02
2017-11-17T03:51:52.888Z,23.40
2017-11-17T03:52:58.598Z,23.73
2017-11-17T03:54:04.515Z,24.80
2017-11-17T03:55:09.987Z,23.50
2017-11-17T03:56:15.390Z,23.95
2017-11-17T03:57:21.368Z,23.77
2017-11-17T03:58:26.904Z,22.13
2017-11-17T03:59:32.463Z,23.90
2017-11-17T04:00:38.173Z,23.92
2017-11-17T04:01:43.708Z,23.42
2017-11-17T04:02:49.238Z,24.48
2017-11-17T04:03:55.346Z,24.48
2017-11-17T04:05:00.798Z,25.33
2017-11-17T04:06:06.247Z,23.62
2017-11-17T04:07:12.038Z,23.12
2017-11-17T04:08:17.994Z,23.87
2017-11-17T04:09:23.672Z,22.77
2017-11-17T04:10:29.411Z,24.50
2017-11-17T04:11:34.987Z,24.40
2017-11-17T04:12:40.381Z,23.90
2017-11-17T04:13:46.104Z,24.23
2017-11-17T04:14:51.804Z,24.65
2017-11-17T04:15:57.358Z,26.20
2017-11-17T04:17:02.833Z,27.00
2017-11-17T04:18:08.504Z,27.65
2017-11-17T04:19:14.294Z,28.48
2017-11-17T04:20:20.004Z,28.47
2017-11-17T04:21:25.624Z,29.50
2017-11-17T04:22:31.076Z,29.58
2017-11-17T04:23:36.525Z,27.58
2017-11-17T04:24:42.573Z,28.00
2017-11-17T04:25:48.574Z,28.90
2017-11-17T04:26:54.342Z,30.12
2017-11-17T04:27:59.829Z,30.60
2017-11-17T04:29:05.244Z,30.25
2017-11-17T04:30:10.869Z,28.43
2017-11-17T04:31:16.593Z,29.65
2017-11-17T04:32:22.359Z,29.85
2017-11-17T04:33:27.955Z,31.10
2017-11-17T04:34:33.391Z,31.23
2017-11-17T04:35:38.891Z,32.60
2017-11-17T04:36:44.779Z,31.70
2017-11-17T04:37:50.470Z,32.75
2017-11-17T04:38:56.038Z,32.30
2017-11-17T04:40:01.643Z,31.83
2017-11-17T04:41:07.128Z,31.60
2017-11-17T04:42:12.598Z,31.85
2017-11-17T04:43:18.475Z,31.97
2017-11-17T04:44:23.891Z,31.95
2017-11-17T04:45:29.391Z,32.83
2017-11-17T04:48:11.229Z,31.80
2017-11-17T04:49:16.698Z,31.30
2017-11-17T04:50:22.138Z,32.17
2017-11-17T04:51:28.090Z,33.45
2017-11-17T04:52:33.572Z,30.83
2017-11-17T04:53:39.134Z,31.13
2017-11-17T04:54:45.707Z,32.70
2017-11-17T04:55:51.174Z,32.20
2017-11-17T04:56:56.746Z,33.15
2017-11-17T04:58:02.197Z,32.72
2017-11-17T04:59:07.645Z,32.20
2017-11-17T05:00:13.317Z,33.30
2017-11-17T05:01:18.962Z,32.50
2017-11-17T05:02:24.468Z,32.80
2017-11-17T05:03:29.895Z,32.17
2017-11-17T05:04:35.950Z,31.27
2017-11-17T05:05:41.857Z,29.85
2017-11-17T05:06:47.289Z,30.67
2017-11-17T05:07:53.126Z,30.17
2017-11-17T05:08:59.184Z,29.17
2017-11-17T05:10:04.894Z,29.20
2017-11-17T05:11:11.774Z,30.10
2017-11-17T05:12:17.319Z,29.42
2017-11-17T05:13:22.728Z,29.08
2017-11-17T05:14:28.389Z,31.15
2017-11-17T05:15:33.797Z,27.60
2017-11-17T05:16:39.596Z,29.60
2017-11-17T05:17:45.037Z,29.23
2017-11-17T05:18:50.586Z,29.13
2017-11-17T05:19:56.266Z,28.00
2017-11-17T05:21:02.259Z,29.77
2017-11-17T05:22:08.290Z,27.08
2017-11-17T05:23:13.717Z,27.52
2017-11-17T05:24:19.125Z,27.00
2017-11-17T05:25:24.996Z,25.42
2017-11-17T05:26:30.443Z,26.80
2017-11-17T05:27:36.042Z,26.15
2017-11-17T05:28:41.848Z,26.00
2017-11-17T05:29:47.551Z,25.37
2017-11-17T05:30:53.095Z,27.13
2017-11-17T05:31:58.622Z,24.98
2017-11-17T05:33:04.802Z,25.58
2017-11-17T05:34:10.259Z,25.23
2017-11-17T05:35:15.723Z,26.00
2017-11-17T05:36:21.144Z,24.83
2017-11-17T05:37:26.603Z,25.85
2017-11-17T05:38:32.089Z,24.98
2017-11-17T05:39:37.644Z,22.83
2017-11-17T05:40:43.084Z,23.70
2017-11-17T05:41:48.566Z,23.02
2017-11-17T05:42:54.014Z,26.35
2017-11-17T05:43:59.489Z,23.08
2017-11-17T05:45:04.989Z,26.90
2017-11-17T05:46:10.494Z,26.15
2017-11-17T05:47:15.944Z,26.33
2017-11-17T05:48:21.720Z,26.70
2017-11-17T05:49:27.419Z,26.40
2017-11-17T05:50:33.175Z,24.98
2017-11-17T05:51:38.676Z,25.60
2017-11-17T05:52:44.392Z,24.95
2017-11-17T05:53:49.800Z,26.20
2017-11-17T05:54:55.344Z,25.95
2017-11-17T05:56:01.101Z,24.05
2017-11-17T05:57:06.505Z,24.37
2017-11-17T05:58:12.109Z,24.60
2017-11-17T05:59:17.819Z,24.35
2017-11-17T06:00:23.263Z,24.67
2017-11-17T06:01:28.995Z,23.77
2017-11-17T06:02:34.463Z,23.92
2017-11-17T06:03:40.039Z,24.30
2017-11-17T06:04:45.862Z,24.08
2017-11-17T06:05:51.435Z,25.85
2017-11-17T06:06:57.086Z,25.35
2017-11-17T06:08:02.657Z,26.58
2017-11-17T06:09:08.248Z,26.92
2017-11-17T06:10:13.770Z,27.98
2017-11-17T06:11:19.187Z,30.40
2017-11-17T06:12:25.021Z,29.73
2017-11-17T06:13:30.489Z,28.95
2017-11-17T06:14:36.100Z,31.48
2017-11-17T06:15:41.659Z,39.70
2017-11-17T06:16:47.330Z,32.53
2017-11-17T06:17:53.122Z,28.55
2017-11-17T06:18:58.855Z,29.20
2017-11-17T06:20:04.296Z,30.10
2017-11-17T06:21:09.726Z,31.02
2017-11-17T06:22:15.434Z,28.58
2017-11-17T06:23:20.889Z,29.92
2017-11-17T06:24:26.653Z,28.85
2017-11-17T06:25:32.446Z,28.45
2017-11-17T06:26:37.969Z,30.77
2017-11-17T06:27:43.463Z,30.35
2017-11-17T06:28:49.267Z,29.85
2017-11-17T06:29:54.881Z,30.25
2017-11-17T06:31:00.344Z,28.58
2017-11-17T06:32:05.801Z,29.12
2017-11-17T06:33:11.301Z,30.95
2017-11-17T06:34:16.864Z,32.50
2017-11-17T06:35:22.529Z,31.02
2017-11-17T06:36:27.958Z,29.30
2017-11-17T06:37:33.506Z,29.70
2017-11-17T06:38:39.067Z,31.42
2017-11-17T06:39:45.162Z,28.50
2017-11-17T06:40:50.593Z,28.80
2017-11-17T06:41:56.135Z,28.42
2017-11-17T06:43:01.623Z,31.33
2017-11-17T06:44:07.506Z,30.05
2017-11-17T06:45:13.721Z,29.60
2017-11-17T06:47:39.709Z,28.65
2017-11-17T06:48:45.140Z,28.30
2017-11-17T06:49:51.204Z,28.50
2017-11-17T06:50:56.649Z,28.90
2017-11-17T06:52:02.098Z,29.00
2017-11-17T06:53:08.050Z,30.35
2017-11-17T06:54:13.510Z,29.92
2017-11-17T06:55:18.914Z,27.77
2017-11-17T06:56:24.763Z,29.58
2017-11-17T06:57:30.256Z,28.27
2017-11-17T06:58:40.372Z,26.48
2017-11-17T06:59:45.821Z,27.87
2017-11-17T07:00:51.297Z,27.45
2017-11-17T07:01:56.786Z,27.42
2017-11-17T07:03:02.933Z,28.70
2017-11-17T07:04:08.392Z,28.65
2017-11-17T07:05:13.822Z,30.62
2017-11-17T07:06:19.269Z,29.02
2017-11-17T07:07:25.042Z,29.25
2017-11-17T07:08:30.620Z,28.90
2017-11-17T07:09:36.165Z,29.55
2017-11-17T07:10:41.717Z,29.42
2017-11-17T07:11:47.215Z,29.52
2017-11-17T07:12:52.662Z,29.90
2017-11-17T07:13:58.124Z,29.40
2017-11-17T07:15:03.632Z,29.85
2017-11-17T07:16:09.022Z,30.27
2017-11-17T07:17:14.469Z,30.90
2017-11-17T07:18:19.968Z,29.45
2017-11-17T07:19:25.378Z,32.00
2017-11-17T07:20:30.933Z,31.02
2017-11-17T07:21:36.342Z,31.05
2017-11-17T07:22:41.822Z,31.03
2017-11-17T07:23:47.367Z,31.10
2017-11-17T07:24:52.850Z,29.40
2017-11-17T07:25:58.527Z,30.48
2017-11-17T07:27:04.081Z,30.15
2017-11-17T07:28:09.510Z,30.08
2017-11-17T07:29:14.986Z,31.15
2017-11-17T07:30:20.428Z,32.03
2017-11-17T07:31:25.924Z,30.75
2017-11-17T07:32:31.375Z,29.12
2017-11-17T07:33:36.805Z,30.37
2017-11-17T07:34:42.269Z,30.30
2017-11-17T07:35:47.867Z,31.65
2017-11-17T07:36:53.602Z,31.17
2017-11-17T07:37:59.059Z,31.05
2017-11-17T07:39:04.569Z,32.77
2017-11-17T07:40:10.096Z,32.72
2017-11-17T07:41:15.586Z,30.62
2017-11-17T07:42:21.005Z,32.78
2017-11-17T07:43:26.441Z,31.25
2017-11-17T07:44:31.867Z,31.30
2017-11-17T07:45:37.354Z,33.63
2017-11-17T07:46:42.877Z,33.20
2017-11-17T07:47:49.341Z,34.92
2017-11-17T07:48:55.456Z,34.40
2017-11-17T07:50:00.941Z,34.35
2017-11-17T07:51:06.396Z,34.50
2017-11-17T07:52:11.868Z,34.50
2017-11-17T07:53:17.364Z,34.88
2017-11-17T07:54:22.833Z,34.22
2017-11-17T07:55:28.361Z,34.40
2017-11-17T07:56:33.809Z,33.78
2017-11-17T07:57:39.237Z,33.70
2017-11-17T07:58:44.648Z,34.00
2017-11-17T07:59:50.491Z,34.55
2017-11-17T08:00:56.063Z,34.45
2017-11-17T08:02:01.584Z,34.65
2017-11-17T08:03:07.042Z,33.93
2017-11-17T08:04:12.457Z,32.83
2017-11-17T08:05:17.939Z,36.05
2017-11-17T08:06:23.445Z,33.60
2017-11-17T08:07:28.954Z,33.58
2017-11-17T08:08:34.370Z,34.47
2017-11-17T08:09:39.846Z,32.42
2017-11-17T08:10:45.529Z,32.95
2017-11-17T08:11:50.971Z,33.58
2017-11-17T08:12:56.434Z,35.35
2017-11-17T08:14:01.900Z,33.58
2017-11-17T08:15:07.391Z,34.33
2017-11-17T08:16:13.086Z,33.97
2017-11-17T08:17:22.885Z,32.72
2017-11-17T08:18:39.596Z,33.50
2017-11-17T08:19:45.401Z,32.97
2017-11-17T08:20:50.914Z,32.92
2017-11-17T08:21:56.783Z,34.38
2017-11-17T08:23:02.301Z,32.65
2017-11-17T08:24:07.765Z,34.00
2017-11-17T08:25:13.252Z,34.27
2017-11-17T08:26:18.930Z,35.63
2017-11-17T08:27:24.923Z,33.83
2017-11-17T08:28:30.526Z,33.60
2017-11-17T08:29:36.020Z,33.03
2017-11-17T08:30:41.481Z,34.53
2017-11-17T08:31:47.049Z,32.17
2017-11-17T08:32:52.537Z,33.45
2017-11-17T08:33:58.007Z,32.70
2017-11-17T08:35:03.499Z,32.47
2017-11-17T08:36:08.966Z,34.35
2017-11-17T08:37:14.541Z,33.07
2017-11-17T08:38:20.472Z,33.38
2017-11-17T08:39:25.988Z,32.00
2017-11-17T08:40:31.511Z,33.65
2017-11-17T08:41:36.957Z,32.58
2017-11-17T08:42:42.512Z,32.13
2017-11-17T08:43:47.943Z,33.20
2017-11-17T08:44:53.465Z,31.92
2017-11-17T08:45:58.943Z,31.73
2017-11-17T08:47:04.390Z,32.35
2017-11-17T08:48:10.078Z,30.88
2017-11-17T08:49:15.978Z,30.10
2017-11-17T08:50:21.521Z,31.52
2017-11-17T08:51:26.925Z,31.20
2017-11-17T08:52:32.441Z,30.52
2017-11-17T08:53:38.057Z,28.77
2017-11-17T08:54:44.544Z,29.27
2017-11-17T08:55:50.032Z,29.05
2017-11-17T08:56:55.525Z,31.12
2017-11-17T08:58:01.011Z,29.27
2017-11-17T08:59:06.653Z,28.48
2017-11-17T09:00:12.188Z,29.23
2017-11-17T09:01:17.931Z,30.20
2017-11-17T09:02:23.447Z,27.98
2017-11-17T09:03:28.902Z,29.10
2017-11-17T09:04:34.384Z,27.30
2017-11-17T09:05:39.855Z,28.62
2017-11-17T09:06:45.797Z,28.70
2017-11-17T09:07:51.301Z,29.30
2017-11-17T09:08:56.775Z,27.60
2017-11-17T09:10:02.502Z,27.67
2017-11-17T09:11:07.924Z,26.65
2017-11-17T09:12:13.352Z,27.75
2017-11-17T09:13:18.784Z,27.42
2017-11-17T09:14:24.221Z,27.10
2017-11-17T09:15:30.162Z,27.33
2017-11-17T09:16:35.606Z,27.08
2017-11-17T09:17:41.024Z,28.38
2017-11-17T09:18:47.714Z,28.58
2017-11-17T09:19:53.215Z,29.55
2017-11-17T09:20:58.758Z,27.52
2017-11-17T09:22:04.245Z,26.12
2017-11-17T09:23:09.731Z,27.02
2017-11-17T09:24:15.222Z,28.25
2017-11-17T09:25:20.764Z,27.83
2017-11-17T09:26:26.276Z,28.73
2017-11-17T09:27:32.969Z,28.90
2017-11-17T09:28:40.027Z,27.48
2017-11-17T09:29:46.377Z,27.70
2017-11-17T09:30:52.016Z,28.27
2017-11-17T09:31:57.620Z,27.60
2017-11-17T09:33:03.153Z,27.90
2017-11-17T09:34:08.784Z,25.40
2017-11-17T09:35:14.548Z,27.27
2017-11-17T09:36:20.037Z,26.80
2017-11-17T09:37:25.580Z,27.15
2017-11-17T09:38:32.031Z,27.77
2017-11-17T09:39:37.723Z,26.27
2017-11-17T09:40:43.990Z,26.92
2017-11-17T09:41:50.072Z,26.20
2017-11-17T09:42:56.039Z,25.73
2017-11-17T09:44:01.775Z,27.75
2017-11-17T09:45:07.342Z,26.70
2017-11-17T09:46:13.117Z,26.85
2017-11-17T09:47:18.726Z,25.98
2017-11-17T09:48:24.262Z,25.30
2017-11-17T09:49:29.865Z,26.58
2017-11-17T09:50:35.538Z,25.45
2017-11-17T09:51:41.134Z,25.25
2017-11-17T09:52:46.609Z,24.73
2017-11-17T09:53:52.063Z,25.90
2017-11-17T09:54:57.590Z,24.90
2017-11-17T09:56:04.189Z,24.85
2017-11-17T09:57:09.878Z,24.63
2017-11-17T09:58:15.866Z,24.37
2017-11-17T09:59:21.326Z,23.73
2017-11-17T10:00:26.822Z,24.25
2017-11-17T10:01:32.763Z,23.20
2017-11-17T10:02:38.215Z,24.50
2017-11-17T10:03:43.819Z,23.40
2017-11-17T10:04:49.419Z,23.95
2017-11-17T10:05:54.967Z,25.02
2017-11-17T10:07:00.621Z,23.10
2017-11-17T10:08:06.237Z,23.50
2017-11-17T10:09:12.022Z,22.65
2017-11-17T10:10:17.538Z,23.15
2017-11-17T10:11:23.082Z,23.62
2017-11-17T10:12:28.563Z,24.27
2017-11-17T10:13:34.145Z,23.55
2017-11-17T10:14:39.772Z,22.70
2017-11-17T10:15:45.264Z,23.70
2017-11-17T10:16:50.722Z,24.02
2017-11-17T10:17:56.309Z,24.27
2017-11-17T10:19:01.784Z,23.80
2017-11-17T10:20:08.590Z,24.00
2017-11-17T10:21:14.134Z,23.60
2017-11-17T10:22:19.716Z,22.85
2017-11-17T10:23:25.391Z,22.40
2017-11-17T10:24:30.912Z,22.25
2017-11-17T10:25:36.470Z,21.30
2017-11-17T10:26:42.013Z,21.92
2017-11-17T10:27:47.715Z,23.17
2017-11-17T10:28:53.418Z,22.35
2017-11-17T10:29:59.362Z,22.13
2017-11-17T10:31:05.232Z,21.27
2017-11-17T10:32:10.813Z,20.95
2017-11-17T10:33:16.384Z,20.65
2017-11-17T10:34:22.012Z,20.17
2017-11-17T10:35:27.475Z,20.13
2017-11-17T10:36:33.286Z,19.65
2017-11-17T10:37:38.711Z,20.00
2017-11-17T10:38:44.502Z,17.67
2017-11-17T10:39:50.181Z,17.27
2017-11-17T10:40:55.811Z,17.70
2017-11-17T10:42:01.413Z,16.25
2017-11-17T10:43:06.994Z,18.48
2017-11-17T10:44:12.602Z,17.17
2017-11-17T10:45:18.186Z,17.10
2017-11-17T10:46:23.758Z,16.15
2017-11-17T10:47:29.659Z,15.32
2017-11-17T10:48:35.184Z,15.55
2017-11-17T10:49:40.726Z,15.18
2017-11-17T10:50:46.216Z,14.82
2017-11-17T10:51:51.735Z,17.10
2017-11-17T10:52:57.233Z,19.23
2017-11-17T10:54:02.699Z,18.87
2017-11-17T10:55:08.306Z,17.63
2017-11-17T10:56:30.666Z,18.15
2017-11-17T10:57:36.170Z,16.80
2017-11-17T10:58:42.000Z,17.73
2017-11-17T10:59:47.564Z,16.90
2017-11-17T11:00:53.098Z,17.53
2017-11-17T11:01:58.887Z,17.02
2017-11-17T11:03:04.322Z,16.43
2017-11-17T11:04:09.890Z,13.88
2017-11-17T11:05:15.396Z,13.30
2017-11-17T11:06:20.954Z,13.50
2017-11-17T11:07:26.524Z,14.57
2017-11-17T11:08:31.961Z,13.33
2017-11-17T11:09:37.826Z,14.10
2017-11-17T11:10:43.318Z,15.10
2017-11-17T11:11:54.386Z,15.13
2017-11-17T11:12:59.867Z,14.52
2017-11-17T11:14:05.486Z,14.73
2017-11-17T11:15:10.970Z,14.30
2017-11-17T11:16:16.502Z,13.10
2017-11-17T11:17:22.181Z,14.20
2017-11-17T11:18:27.703Z,12.77
2017-11-17T11:19:33.181Z,11.65
2017-11-17T11:20:39.130Z,11.73
2017-11-17T11:21:44.632Z,13.50
2017-11-17T11:22:50.120Z,12.97
2017-11-17T11:23:55.634Z,13.05
2017-11-17T11:25:01.068Z,11.75
2017-11-17T11:26:06.557Z,10.47
2017-11-17T11:27:12.499Z,10.25
2017-11-17T11:28:17.990Z,12.18
2017-11-17T11:29:23.575Z,8.98
2017-11-17T11:30:29.101Z,10.50
2017-11-17T11:31:34.636Z,10.73
2017-11-17T11:32:40.277Z,11.52
2017-11-17T11:33:46.128Z,12.73
2017-11-17T11:34:51.649Z,12.43
2017-11-17T11:35:57.204Z,13.23
2017-11-17T11:37:02.659Z,14.18
2017-11-17T11:38:08.531Z,14.20
2017-11-17T11:39:14.006Z,14.15
2017-11-17T11:40:19.658Z,13.00
2017-11-17T11:41:25.158Z,11.00
2017-11-17T11:42:30.581Z,10.93
2017-11-17T11:43:36.106Z,9.00
2017-11-17T11:44:41.850Z,8.70
2017-11-17T11:45:47.359Z,8.75
2017-11-17T11:46:53.484Z,8.60
2017-11-17T11:47:59.791Z,8.68
2017-11-17T11:49:05.691Z,8.48
2017-11-17T11:50:11.169Z,8.32
2017-11-17T11:51:16.642Z,8.80
2017-11-17T11:52:22.219Z,8.90
2017-11-17T11:53:27.647Z,8.88
2017-11-17T11:54:33.097Z,9.27
2017-11-17T11:55:38.838Z,8.63
2017-11-17T11:56:44.305Z,7.78
2017-11-17T11:57:49.758Z,8.35
2017-11-17T11:58:55.287Z,8.43
2017-11-17T12:00:00.733Z,8.68
2017-11-17T12:01:06.295Z,7.90
2017-11-17T12:02:11.815Z,8.50
2017-11-17T12:03:17.355Z,7.40
2017-11-17T12:04:22.813Z,6.97
2017-11-17T12:05:28.284Z,6.47
2017-11-17T12:06:34.107Z,6.37
2017-11-17T12:07:39.630Z,8.63
2017-11-17T12:08:45.090Z,7.40
2017-11-17T12:09:50.957Z,7.55
2017-11-17T12:10:56.430Z,7.45
2017-11-17T12:12:02.130Z,6.25
2017-11-17T12:13:07.589Z,6.30
2017-11-17T12:14:13.101Z,5.93
2017-11-17T12:15:18.550Z,5.90
2017-11-17T12:16:24.497Z,5.00
2017-11-17T12:17:30.064Z,6.20
2017-11-17T12:18:35.593Z,5.95
2017-11-17T12:19:41.064Z,6.07
2017-11-17T12:20:46.591Z,5.83
2017-11-17T12:21:52.084Z,5.43
2017-11-17T12:22:57.862Z,4.82
2017-11-17T12:24:03.341Z,5.47
2017-11-17T12:25:08.795Z,5.10
2017-11-17T12:26:14.298Z,5.23
2017-11-17T12:27:20.278Z,4.60
2017-11-17T12:28:25.834Z,5.30
2017-11-17T12:29:31.322Z,4.32
2017-11-17T12:30:36.813Z,3.73
2017-11-17T12:31:42.413Z,2.97
2017-11-17T12:32:48.047Z,3.22
2017-11-17T12:33:53.692Z,3.40
2017-11-17T12:34:59.166Z,3.30
2017-11-17T12:36:05.105Z,3.75
2017-11-17T12:37:10.633Z,3.35
2017-11-17T12:38:16.410Z,3.33
2017-11-17T12:39:21.884Z,3.50
2017-11-17T12:40:27.522Z,3.55
2017-11-17T12:41:33.030Z,3.45
2017-11-17T12:42:38.595Z,3.65
2017-11-17T12:43:44.544Z,3.40
2017-11-17T12:44:50.610Z,2.90
2017-11-17T12:45:56.159Z,3.55
2017-11-17T12:47:01.735Z,2.90
2017-11-17T12:48:07.480Z,3.40
2017-11-17T12:49:12.967Z,3.20
2017-11-17T12:50:18.563Z,3.10
2017-11-17T12:51:24.073Z,3.53
2017-11-17T12:52:29.662Z,3.17
2017-11-17T12:53:35.189Z,2.80
2017-11-17T12:54:41.161Z,3.00
2017-11-17T12:55:46.614Z,3.50
2017-11-17T12:56:52.141Z,2.72
2017-11-17T12:57:57.675Z,3.40
2017-11-17T12:59:03.159Z,3.28
2017-11-17T13:00:08.698Z,3.60
2017-11-17T13:01:14.218Z,3.40
2017-11-17T13:02:19.787Z,3.37
2017-11-17T13:03:25.349Z,3.25
2017-11-17T13:04:30.841Z,3.42
2017-11-17T13:05:36.662Z,3.85
2017-11-17T13:06:42.123Z,2.97
2017-11-17T13:07:47.640Z,3.72
2017-11-17T13:08:53.847Z,3.50
2017-11-17T13:09:59.343Z,3.40
2017-11-17T13:11:05.552Z,3.58
2017-11-17T13:12:11.085Z,3.07
2017-11-17T13:13:16.547Z,2.90
2017-11-17T13:14:22.109Z,3.15
2017-11-17T13:15:27.605Z,3.00
2017-11-17T13:16:33.141Z,3.00
2017-11-17T13:17:38.765Z,3.08
2017-11-17T13:18:44.335Z,2.95
2017-11-17T13:19:50.174Z,3.17
2017-11-17T13:20:55.793Z,3.10
2017-11-17T13:22:02.374Z,3.42
2017-11-17T13:23:08.545Z,3.40
2017-11-17T13:24:14.044Z,2.97
2017-11-17T13:25:19.932Z,3.60
2017-11-17T13:26:26.520Z,3.40
2017-11-17T13:27:33.525Z,3.33
2017-11-17T13:28:39.659Z,3.70
2017-11-17T13:29:45.124Z,3.70
2017-11-17T13:30:50.651Z,3.75
2017-11-17T13:31:56.956Z,3.10
2017-11-17T13:33:02.548Z,3.10
2017-11-17T13:34:08.379Z,4.03
2017-11-17T13:35:13.855Z,3.50
2017-11-17T13:36:19.377Z,3.92
2017-11-17T13:37:24.860Z,3.85
2017-11-17T13:38:30.463Z,2.80
2017-11-17T13:39:36.327Z,3.75
2017-11-17T13:40:41.851Z,3.60
2017-11-17T13:41:47.330Z,3.85
2017-11-17T13:42:52.865Z,3.85
2017-11-17T13:43:58.392Z,4.55
2017-11-17T13:45:04.324Z,3.60
2017-11-17T13:46:09.786Z,3.80
2017-11-17T13:47:15.285Z,3.43
2017-11-17T13:48:20.753Z,3.53
2017-11-17T13:49:26.297Z,2.92
2017-11-17T13:50:31.739Z,3.12
2017-11-17T13:51:37.392Z,3.00
2017-11-17T13:52:43.159Z,3.10
2017-11-17T13:53:48.828Z,3.00
2017-11-17T13:54:58.295Z,3.30
2017-11-17T13:56:03.983Z,3.50
2017-11-17T13:57:09.580Z,3.53
2017-11-17T13:58:15.128Z,3.20
2017-11-17T13:59:20.629Z,2.90
2017-11-17T14:00:26.450Z,2.85
2017-11-17T14:01:32.308Z,3.40
2017-11-17T14:02:37.848Z,3.05
2017-11-17T14:03:43.440Z,3.45
2017-11-17T14:04:49.559Z,3.10
2017-11-17T14:05:56.995Z,3.22
2017-11-17T14:07:02.525Z,3.40
2017-11-17T14:08:08.042Z,3.10
2017-11-17T14:09:13.953Z,3.00
2017-11-17T14:10:19.667Z,3.20
2017-11-17T14:11:25.197Z,2.85
2017-11-17T14:12:30.718Z,2.80
2017-11-17T14:13:36.508Z,3.10
2017-11-17T14:14:42.094Z,11.35